Time;durP1;ratioP1;P1;durP2;ratioP2;P2;SDS_P1;SDS_P2;PMS_P1;PMS_P2;Temp;Humidity;BMP_temperature;BMP_pressure;BME280_temperature;BME280_humidity;BME280_pressure;Samples;Min_cycle;Max_cycle;Signal;HPM_P1;HPM_P2
2023/10/22 00:01:20;;;;;;;5.32;4.50;;;;;;;16.88;67.28;97861.09;5110168;28;20192;-76
2023/10/22 00:03:46;;;;;;;4.20;3.65;;;;;;;16.81;66.57;97852.03;5108979;28;20051;-76
2023/10/22 00:06:13;;;;;;;4.10;3.45;;;;;;;16.69;66.12;97859.50;5108928;28;20059;-76
2023/10/22 00:08:40;;;;;;;4.18;3.63;;;;;;;16.70;66.00;97853.16;5109684;28;20040;-76
2023/10/22 00:11:07;;;;;;;3.70;3.10;;;;;;;16.68;65.68;97849.81;5109378;28;20044;-76
2023/10/22 00:13:33;;;;;;;3.53;2.92;;;;;;;15.99;65.73;97725.91;5109927;28;20043;-75
2023/10/22 00:16:00;;;;;;;3.88;2.83;;;;;;;16.63;64.69;97847.56;5109026;28;20040;-75
2023/10/22 00:18:28;;;;;;;3.65;2.78;;;;;;;16.31;64.90;97821.50;5109246;28;20047;-75
2023/10/22 00:20:55;;;;;;;4.55;2.83;;;;;;;16.53;64.42;97849.53;5108315;28;20119;-75
2023/10/22 00:23:22;;;;;;;3.70;2.30;;;;;;;16.52;64.68;97847.84;5109427;28;20181;-75
2023/10/22 00:25:51;;;;;;;3.17;2.33;;;;;;;16.26;63.16;97806.91;5109682;28;20181;-75
2023/10/22 00:28:18;;;;;;;4.75;2.95;;;;;;;16.41;62.55;97864.16;5108165;28;20036;-75
2023/10/22 00:30:47;;;;;;;3.17;2.33;;;;;;;16.52;64.90;97873.75;5109314;28;20040;-76
2023/10/22 00:33:14;;;;;;;3.72;2.67;;;;;;;16.41;64.10;97874.03;5108099;28;20334;-75
2023/10/22 00:35:42;;;;;;;3.30;2.25;;;;;;;16.41;63.60;97864.16;5108892;28;20039;-75
2023/10/22 00:38:09;;;;;;;3.30;2.55;;;;;;;16.41;63.87;97877.53;5109125;28;20051;-75
2023/10/22 00:40:35;;;;;;;3.35;2.35;;;;;;;16.33;63.73;97867.63;5107959;28;20043;-75
2023/10/22 00:43:05;;;;;;;3.47;2.45;;;;;;;15.68;63.75;97767.44;5107885;28;20036;-75
2023/10/22 00:45:38;;;;;;;3.28;2.55;;;;;;;16.40;64.04;97878.53;5109252;28;20044;-75
2023/10/22 00:48:05;;;;;;;3.58;2.30;;;;;;;13.04;63.73;97323.75;5107708;28;20094;-75
2023/10/22 00:50:32;;;;;;;3.90;2.67;;;;;;;16.32;63.81;97873.13;5108721;28;20040;-75
2023/10/22 00:53:01;;;;;;;2.88;2.25;;;;;;;16.25;63.83;97862.22;5108468;28;20218;-75
2023/10/22 00:55:28;;;;;;;3.67;2.83;;;;;;;15.79;64.32;97787.72;5109134;28;20144;-74
2023/10/22 00:57:55;;;;;;;4.63;2.97;;;;;;;16.29;63.60;97858.22;5109323;28;20051;-73
2023/10/22 01:00:21;;;;;;;3.30;2.42;;;;;;;16.22;63.40;97859.84;5107687;28;20046;-73
2023/10/22 01:02:48;;;;;;;3.15;2.08;;;;;;;15.88;63.66;97790.28;5108545;28;20059;-73
2023/10/22 01:05:15;;;;;;;3.10;2.40;;;;;;;16.14;63.94;97854.44;5108581;28;20073;-73
2023/10/22 01:07:42;;;;;;;2.88;2.45;;;;;;;16.07;63.26;97852.56;5109151;28;20035;-72
2023/10/22 01:10:10;;;;;;;3.38;2.28;;;;;;;16.10;64.00;97850.41;5108574;28;20047;-73
2023/10/22 01:12:38;;;;;;;3.28;2.30;;;;;;;16.07;63.64;97865.91;5108386;28;20292;-73
2023/10/22 01:15:06;;;;;;;3.58;2.30;;;;;;;16.06;63.42;97843.69;5108790;28;20063;-73
2023/10/22 01:17:33;;;;;;;2.80;2.20;;;;;;;15.84;63.85;97809.47;5108227;28;20044;-72
2023/10/22 01:19:59;;;;;;;2.75;2.15;;;;;;;14.75;62.88;97646.84;5108585;28;20048;-73
2023/10/22 01:22:26;;;;;;;6.20;1.75;;;;;;;15.92;62.57;97858.47;5108285;28;20297;-72
2023/10/22 01:24:54;;;;;;;3.28;2.40;;;;;;;15.57;62.73;97786.34;5108292;28;20097;-72
2023/10/22 01:27:21;;;;;;;2.90;2.00;;;;;;;15.86;62.80;97850.22;5108219;28;20288;-72
2023/10/22 01:29:48;;;;;;;2.63;1.70;;;;;;;14.57;61.76;97659.28;5107395;28;20331;-73
2023/10/22 01:32:15;;;;;;;2.72;1.77;;;;;;;15.68;61.86;97853.75;5108180;28;20051;-73
2023/10/22 01:34:41;;;;;;;2.88;2.00;;;;;;;15.65;61.73;97864.72;5108386;28;20085;-72
2023/10/22 01:37:08;;;;;;;2.90;1.95;;;;;;;15.58;61.09;97860.94;5107794;28;20044;-72
2023/10/22 01:39:35;;;;;;;3.97;2.00;;;;;;;15.65;62.02;97856.72;5108279;28;20039;-72
2023/10/22 01:42:04;;;;;;;2.53;1.73;;;;;;;15.44;61.69;97821.44;5107782;28;20044;-72
2023/10/22 01:44:31;;;;;;;2.90;1.70;;;;;;;14.84;61.51;97765.09;5106919;28;20274;-73
2023/10/22 01:46:57;;;;;;;3.60;1.70;;;;;;;15.46;60.77;97864.00;5108146;28;20098;-72
2023/10/22 01:49:24;;;;;;;3.10;1.80;;;;;;;15.48;60.88;97876.19;5108003;28;20043;-72
2023/10/22 01:51:51;;;;;;;2.20;1.58;;;;;;;15.42;60.91;97860.78;5107501;28;20089;-73
2023/10/22 01:54:17;;;;;;;2.65;1.90;;;;;;;15.05;60.53;97797.69;5107661;28;20055;-73
2023/10/22 01:56:46;;;;;;;2.60;1.48;;;;;;;15.06;60.98;97814.53;5107651;28;20043;-73
2023/10/22 01:59:14;;;;;;;2.30;1.63;;;;;;;15.39;60.53;97887.78;5107470;28;20246;-72
2023/10/22 02:01:42;;;;;;;3.78;1.50;;;;;;;15.32;59.98;97882.22;5107126;28;20044;-73
2023/10/22 02:04:09;;;;;;;3.72;1.50;;;;;;;15.32;60.33;97874.19;5106458;28;20208;-72
2023/10/22 02:06:36;;;;;;;4.40;1.65;;;;;;;15.24;60.20;97873.28;5107160;28;20047;-71
2023/10/22 02:09:02;;;;;;;2.50;1.50;;;;;;;15.19;60.03;97875.53;5106755;28;20048;-72
2023/10/22 02:11:30;;;;;;;2.67;1.50;;;;;;;15.22;59.50;97872.59;5106230;28;20300;-72
2023/10/22 02:13:56;;;;;;;1.98;1.30;;;;;;;15.21;59.47;97885.09;5106676;28;20039;-72
2023/10/22 02:16:25;;;;;;;2.38;1.60;;;;;;;15.12;59.49;97869.97;5107249;28;20060;-72
2023/10/22 02:18:51;;;;;;;2.88;1.80;;;;;;;14.08;59.49;97706.66;5106915;28;20036;-72
2023/10/22 02:21:21;;;;;;;2.85;1.70;;;;;;;15.15;60.28;97885.69;5107161;28;20044;-72
2023/10/22 02:23:48;;;;;;;2.35;1.63;;;;;;;15.17;59.52;97883.69;5106385;28;20044;-73
2023/10/22 02:26:14;;;;;;;2.60;1.60;;;;;;;15.15;59.82;97887.50;5107291;28;20040;-73
2023/10/22 02:28:41;;;;;;;3.05;1.65;;;;;;;14.89;59.36;97844.69;5106273;28;20040;-73
2023/10/22 02:31:10;;;;;;;3.05;1.70;;;;;;;15.04;59.48;97880.53;5107194;28;20048;-73
2023/10/22 02:33:39;;;;;;;3.80;1.70;;;;;;;14.33;59.10;97782.41;5107099;28;20347;-73
2023/10/22 02:36:06;;;;;;;3.00;1.45;;;;;;;15.06;60.33;97887.41;5106463;28;20081;-72
2023/10/22 02:38:36;;;;;;;3.17;1.75;;;;;;;15.01;60.15;97905.69;5106780;28;20055;-73
2023/10/22 02:41:03;;;;;;;2.40;1.65;;;;;;;15.04;60.27;97912.56;5107096;28;20085;-73
2023/10/22 02:43:30;;;;;;;2.45;1.58;;;;;;;15.02;59.47;97896.69;5106806;28;20077;-73
2023/10/22 02:45:57;;;;;;;2.05;1.40;;;;;;;15.01;60.32;97905.69;5106768;28;20149;-72
2023/10/22 02:48:24;;;;;;;2.58;1.70;;;;;;;14.95;59.07;97926.78;5105550;28;20039;-72
2023/10/22 02:50:52;;;;;;;2.22;1.40;;;;;;;14.93;58.98;97896.75;5105558;28;20040;-72
2023/10/22 02:53:19;;;;;;;2.58;1.60;;;;;;;14.92;60.23;97927.91;5105460;28;20208;-72
2023/10/22 02:55:47;;;;;;;2.22;1.38;;;;;;;14.43;59.89;97835.69;5106288;28;20051;-72
2023/10/22 02:58:14;;;;;;;3.03;1.80;;;;;;;14.90;59.78;97927.22;5106472;28;20047;-73
2023/10/22 03:00:41;;;;;;;2.58;1.70;;;;;;;14.95;60.00;97924.13;5105630;28;20089;-73
2023/10/22 03:03:07;;;;;;;2.20;1.50;;;;;;;14.89;59.26;97932.69;5105157;28;20055;-72
2023/10/22 03:05:36;;;;;;;3.70;1.73;;;;;;;14.87;59.88;97922.19;5106612;28;20044;-73
2023/10/22 03:08:04;;;;;;;3.42;1.77;;;;;;;14.85;59.09;97933.97;5106327;28;20052;-73
2023/10/22 03:10:31;;;;;;;2.58;1.58;;;;;;;14.87;59.91;97950.69;5105233;28;20035;-72
2023/10/22 03:12:59;;;;;;;2.20;1.45;;;;;;;14.83;59.72;97950.13;5105710;28;20084;-73
2023/10/22 03:15:26;;;;;;;2.22;1.60;;;;;;;14.82;59.77;97951.13;5106524;28;20074;-73
2023/10/22 03:17:53;;;;;;;2.80;1.60;;;;;;;13.66;59.10;97790.56;5106508;28;20093;-73
2023/10/22 03:20:22;;;;;;;3.15;1.67;;;;;;;14.82;59.75;97964.44;5105133;28;20208;-72
2023/10/22 03:22:50;;;;;;;2.70;1.70;;;;;;;14.82;59.47;97988.44;5105271;28;20077;-73
2023/10/22 03:25:18;;;;;;;2.67;1.40;;;;;;;14.82;59.30;97968.94;5106068;28;20092;-73
2023/10/22 03:27:45;;;;;;;2.90;1.60;;;;;;;14.82;59.67;97987.59;5105943;28;20047;-73
2023/10/22 03:30:13;;;;;;;2.05;1.40;;;;;;;14.81;59.82;97996.59;5106111;28;20122;-73
2023/10/22 03:32:40;;;;;;;2.30;1.52;;;;;;;14.70;58.54;97978.94;5104867;28;20040;-73
2023/10/22 03:35:08;;;;;;;2.60;1.50;;;;;;;14.66;59.13;97985.53;5105628;28;20040;-73
2023/10/22 03:37:34;;;;;;;2.33;1.50;;;;;;;14.64;58.94;97985.69;5104745;28;20153;-73
2023/10/22 03:40:01;;;;;;;2.50;1.58;;;;;;;14.65;58.89;97999.84;5105453;28;20040;-73
2023/10/22 03:42:31;;;;;;;2.45;1.48;;;;;;;14.67;58.78;97990.72;5104663;28;20036;-72
2023/10/22 03:44:57;;;;;;;1.83;1.25;;;;;;;14.64;58.77;97996.34;5106132;28;20048;-72
2023/10/22 03:47:24;;;;;;;2.00;1.48;;;;;;;14.72;59.54;97992.97;5105898;28;20089;-72
2023/10/22 03:49:50;;;;;;;2.10;1.40;;;;;;;14.70;58.55;98008.28;5104710;28;20085;-73
2023/10/22 03:52:21;;;;;;;2.15;1.58;;;;;;;14.67;58.58;98040.56;5105278;28;20230;-72
2023/10/22 03:54:49;;;;;;;4.32;1.58;;;;;;;14.65;58.57;98002.53;5105540;28;20311;-72
2023/10/22 03:57:21;;;;;;;2.53;1.40;;;;;;;14.60;58.48;98015.41;5105686;28;20125;-72
2023/10/22 03:59:50;;;;;;;1.85;1.42;;;;;;;14.64;58.49;98014.19;5104658;28;20299;-72
2023/10/22 04:02:19;;;;;;;2.00;1.50;;;;;;;14.63;59.47;98023.16;5105515;28;20296;-72
2023/10/22 04:04:47;;;;;;;3.47;1.55;;;;;;;14.66;58.77;98028.19;5104614;28;20048;-72
2023/10/22 04:07:14;;;;;;;3.25;1.70;;;;;;;14.60;58.46;98040.28;5105432;28;20094;-73
2023/10/22 04:09:40;;;;;;;2.60;1.45;;;;;;;14.54;58.97;98030.13;5105890;28;20056;-72
2023/10/22 04:12:08;;;;;;;2.83;1.85;;;;;;;14.61;59.11;98043.78;5105681;28;20044;-73
2023/10/22 04:14:34;;;;;;;2.80;1.48;;;;;;;14.64;59.28;98046.16;5105912;28;20036;-73
2023/10/22 04:17:03;;;;;;;2.50;1.45;;;;;;;14.51;59.05;98053.56;5105380;28;20047;-73
2023/10/22 04:19:29;;;;;;;2.50;1.50;;;;;;;14.53;58.61;98060.44;5105325;28;20231;-73
2023/10/22 04:21:56;;;;;;;2.13;1.38;;;;;;;14.36;58.60;98026.47;5105293;28;20208;-73
2023/10/22 04:24:23;;;;;;;2.88;1.58;;;;;;;14.50;58.33;98052.72;5104720;28;20048;-73
2023/10/22 04:26:49;;;;;;;2.58;1.52;;;;;;;14.30;58.51;98035.03;5105810;28;20044;-73
2023/10/22 04:29:16;;;;;;;2.28;1.40;;;;;;;14.53;58.75;98062.25;5105733;28;20040;-73
2023/10/22 04:31:43;;;;;;;2.13;1.23;;;;;;;14.45;58.56;98069.13;5108382;28;20039;-73
2023/10/22 04:34:12;;;;;;;2.63;1.60;;;;;;;14.44;58.33;98071.94;5109275;28;20052;-72
2023/10/22 04:36:39;;;;;;;2.10;1.52;;;;;;;14.52;58.85;98072.06;5109252;28;20055;-73
2023/10/22 04:39:06;;;;;;;2.20;1.40;;;;;;;14.48;58.00;98067.16;5109158;28;20295;-73
2023/10/22 04:41:32;;;;;;;2.78;1.42;;;;;;;14.45;58.68;98079.78;5109369;28;20089;-73
2023/10/22 04:43:59;;;;;;;2.22;1.45;;;;;;;14.45;58.63;98082.44;5109086;28;20055;-73
2023/10/22 04:46:26;;;;;;;2.53;1.42;;;;;;;14.41;58.52;98074.88;5108783;28;20044;-73
2023/10/22 04:48:54;;;;;;;1.73;1.42;;;;;;;14.38;58.69;98093.81;5108655;28;20089;-72
2023/10/22 04:51:23;;;;;;;2.50;1.40;;;;;;;14.43;58.99;98087.06;5108971;28;20332;-73
2023/10/22 04:53:50;;;;;;;2.30;1.65;;;;;;;14.44;58.89;98079.94;5108888;28;20063;-73
2023/10/22 04:56:17;;;;;;;2.70;1.33;;;;;;;14.43;58.27;98095.06;5108597;28;20261;-73
2023/10/22 04:58:44;;;;;;;2.17;1.50;;;;;;;14.40;58.44;98091.84;5108847;28;20178;-72
2023/10/22 05:01:11;;;;;;;2.95;1.30;;;;;;;14.38;58.53;98123.13;5108149;28;20047;-72
2023/10/22 05:03:38;;;;;;;2.08;1.35;;;;;;;14.35;58.69;98123.41;5107441;28;20113;-72
2023/10/22 05:06:06;;;;;;;2.17;1.40;;;;;;;14.24;59.27;98075.56;5108082;28;20050;-72
2023/10/22 05:08:36;;;;;;;1.73;1.23;;;;;;;14.35;59.27;98131.41;5107414;28;20118;-73
2023/10/22 05:11:05;;;;;;;2.35;1.20;;;;;;;14.32;59.58;98126.34;5107982;28;20048;-73
2023/10/22 05:13:32;;;;;;;2.40;1.50;;;;;;;14.36;59.61;98139.25;5108540;28;20040;-72
2023/10/22 05:15:59;;;;;;;1.50;1.25;;;;;;;14.32;60.21;98158.31;5108225;28;20089;-73
2023/10/22 05:18:26;;;;;;;1.75;1.13;;;;;;;14.34;60.32;98161.69;5108702;28;20051;-72
2023/10/22 05:20:53;;;;;;;1.73;1.40;;;;;;;14.34;61.01;98173.19;5107961;28;20048;-73
2023/10/22 05:23:20;;;;;;;2.05;1.25;;;;;;;14.33;60.93;98176.84;5107243;28;20309;-73
2023/10/22 05:25:48;;;;;;;1.70;1.30;;;;;;;14.27;61.43;98185.38;5108337;28;20043;-73
2023/10/22 05:28:15;;;;;;;2.80;1.40;;;;;;;14.19;62.29;98205.69;5107748;28;20040;-73
2023/10/22 05:30:41;;;;;;;3.00;1.25;;;;;;;14.24;61.81;98200.81;5107037;28;20040;-73
2023/10/22 05:33:08;;;;;;;3.08;1.30;;;;;;;14.21;62.31;98206.41;5107015;28;20243;-72
2023/10/22 05:35:36;;;;;;;2.30;1.50;;;;;;;14.22;62.47;98226.75;5108255;28;20040;-72
2023/10/22 05:38:03;;;;;;;3.35;1.40;;;;;;;14.19;62.60;98206.53;5107969;28;20044;-72
2023/10/22 05:40:35;;;;;;;3.75;1.33;;;;;;;14.18;62.83;98204.00;5108054;28;20242;-72
2023/10/22 05:43:04;;;;;;;1.98;1.30;;;;;;;14.18;63.06;98207.53;5107015;28;20040;-73
2023/10/22 05:45:30;;;;;;;3.17;1.60;;;;;;;14.08;62.89;98212.81;5107924;28;20052;-73
2023/10/22 05:47:57;;;;;;;1.67;1.20;;;;;;;14.09;62.98;98230.47;5107784;28;20093;-73
2023/10/22 05:50:25;;;;;;;1.70;1.30;;;;;;;14.15;63.41;98233.59;5107725;28;20085;-72
2023/10/22 05:52:52;;;;;;;2.03;1.30;;;;;;;14.10;63.10;98242.81;5106606;28;20131;-73
2023/10/22 05:55:19;;;;;;;2.03;1.30;;;;;;;13.92;62.50;98224.94;5106621;28;20230;-73
2023/10/22 05:57:47;;;;;;;2.10;1.45;;;;;;;14.05;63.13;98244.19;5107662;28;20094;-74
2023/10/22 06:00:17;;;;;;;1.80;1.30;;;;;;;14.04;62.62;98258.50;5107272;28;20085;-74
2023/10/22 06:02:44;;;;;;;2.35;1.30;;;;;;;14.02;62.68;98261.28;5107207;28;20064;-74
2023/10/22 06:05:12;;;;;;;2.00;1.30;;;;;;;14.00;62.23;98265.91;5107550;28;20103;-74
2023/10/22 06:07:39;;;;;;;2.05;1.20;;;;;;;13.96;62.97;98285.81;5107185;28;20040;-74
2023/10/22 06:10:06;;;;;;;1.90;1.20;;;;;;;13.95;62.48;98294.75;5106535;28;20167;-74
2023/10/22 06:12:33;;;;;;;1.70;1.30;;;;;;;13.97;62.20;98289.31;5107124;28;20051;-74
2023/10/22 06:15:03;;;;;;;3.03;1.42;;;;;;;13.89;62.66;98294.44;5107620;28;20036;-73
2023/10/22 06:17:31;;;;;;;3.05;1.45;;;;;;;13.93;62.48;98307.38;5107332;28;20165;-73
2023/10/22 06:19:59;;;;;;;2.88;1.60;;;;;;;13.97;61.97;98302.63;5106972;28;20036;-73
2023/10/22 06:22:26;;;;;;;2.00;1.30;;;;;;;13.97;61.72;98315.94;5107507;28;20089;-73
2023/10/22 06:24:52;;;;;;;2.03;1.30;;;;;;;13.96;61.89;98325.75;5106030;28;20078;-73
2023/10/22 06:27:19;;;;;;;3.45;1.50;;;;;;;13.84;61.70;98296.66;5105955;28;20044;-73
2023/10/22 06:29:48;;;;;;;2.20;1.38;;;;;;;13.92;62.14;98332.31;5106710;28;20180;-72
2023/10/22 06:32:15;;;;;;;2.10;1.40;;;;;;;13.90;61.48;98333.41;5106587;28;20044;-73
2023/10/22 06:34:43;;;;;;;2.17;1.50;;;;;;;13.94;62.06;98333.03;5106941;28;20047;-73
2023/10/22 06:37:09;;;;;;;1.80;1.40;;;;;;;13.99;61.80;98346.81;5105695;28;20319;-72
2023/10/22 06:39:36;;;;;;;3.30;1.70;;;;;;;14.02;61.84;98335.03;5105740;28;20234;-73
2023/10/22 06:42:03;;;;;;;1.88;1.30;;;;;;;13.97;61.33;98340.75;5106500;28;20093;-73
2023/10/22 06:44:30;;;;;;;1.95;1.33;;;;;;;13.81;61.11;98327.06;5106148;28;20048;-73
2023/10/22 06:46:57;;;;;;;1.90;1.30;;;;;;;14.01;61.20;98346.66;5105653;28;20088;-72
2023/10/22 06:49:23;;;;;;;3.28;1.40;;;;;;;14.05;60.50;98345.44;5106310;28;20052;-72
2023/10/22 06:51:51;;;;;;;2.75;1.88;;;;;;;14.06;61.25;98350.63;5106563;28;20044;-73
2023/10/22 06:54:18;;;;;;;2.22;1.50;;;;;;;13.97;60.35;98367.41;5106452;28;20044;-73
2023/10/22 06:56:45;;;;;;;2.13;1.33;;;;;;;14.08;61.26;98371.81;5106680;28;20292;-73
2023/10/22 06:59:11;;;;;;;2.58;1.75;;;;;;;14.06;60.56;98374.63;5106515;28;20188;-73
2023/10/22 07:01:38;;;;;;;2.40;1.42;;;;;;;14.12;61.01;98370.59;5106179;28;20086;-73
2023/10/22 07:04:05;;;;;;;2.10;1.60;;;;;;;14.07;60.26;98375.47;5106567;28;20048;-73
2023/10/22 07:06:32;;;;;;;2.03;1.42;;;;;;;14.10;60.99;98383.19;5106330;28;20093;-72
2023/10/22 07:09:00;;;;;;;2.50;1.70;;;;;;;13.99;60.96;98378.78;5106287;28;20052;-72
2023/10/22 07:11:26;;;;;;;2.40;1.60;;;;;;;14.02;60.47;98396.31;5105088;28;20313;-72
2023/10/22 07:13:53;;;;;;;1.92;1.42;;;;;;;14.05;60.63;98380.91;5106003;28;20039;-72
2023/10/22 07:16:20;;;;;;;2.20;1.50;;;;;;;14.09;60.20;98393.00;5106176;28;20040;-73
2023/10/22 07:18:46;;;;;;;2.33;1.48;;;;;;;14.13;60.22;98398.91;5106209;28;20212;-73
2023/10/22 07:21:13;;;;;;;2.20;1.42;;;;;;;14.13;60.43;98399.75;5106182;28;20058;-73
2023/10/22 07:23:40;;;;;;;2.20;1.60;;;;;;;14.15;60.46;98407.63;5106190;28;20048;-73
2023/10/22 07:26:08;;;;;;;2.25;1.50;;;;;;;14.12;60.11;98399.88;5105005;28;20223;-72
2023/10/22 07:28:35;;;;;;;2.70;1.80;;;;;;;14.12;60.45;98406.06;5106377;28;20040;-72
2023/10/22 07:31:02;;;;;;;2.63;1.70;;;;;;;14.14;60.40;98397.94;5105923;28;20047;-73
2023/10/22 07:33:28;;;;;;;2.60;1.98;;;;;;;14.18;60.30;98401.19;5105334;28;20280;-73
2023/10/22 07:35:56;;;;;;;2.35;1.70;;;;;;;14.15;59.99;98401.44;5104865;28;20048;-73
2023/10/22 07:38:24;;;;;;;2.70;1.90;;;;;;;14.15;59.57;98399.63;5104841;28;20048;-73
2023/10/22 07:40:55;;;;;;;2.75;1.73;;;;;;;14.16;59.68;98398.66;5105909;28;20109;-73
2023/10/22 07:43:24;;;;;;;2.60;1.77;;;;;;;14.03;59.70;98371.38;5105494;28;20067;-73
2023/10/22 07:45:50;;;;;;;3.28;2.00;;;;;;;14.21;59.51;98412.44;5104954;28;20040;-73
2023/10/22 07:48:17;;;;;;;2.90;1.80;;;;;;;14.23;60.21;98423.81;5105573;28;20185;-73
2023/10/22 07:50:44;;;;;;;2.50;1.65;;;;;;;14.27;59.72;98417.25;5105458;28;20039;-73
2023/10/22 07:53:10;;;;;;;1.85;1.40;;;;;;;14.28;59.71;98429.59;5104619;28;20090;-73
2023/10/22 07:55:39;;;;;;;1.85;1.23;;;;;;;14.29;59.20;98419.78;5105399;28;20081;-73
2023/10/22 07:58:06;;;;;;;2.33;1.52;;;;;;;14.08;59.13;98378.00;5105336;28;20107;-73
2023/10/22 08:00:34;;;;;;;1.95;1.30;;;;;;;14.31;59.56;98424.00;5106012;28;20137;-73
2023/10/22 08:03:01;;;;;;;2.30;1.70;;;;;;;14.34;58.68;98428.22;5104257;28;20063;-73
2023/10/22 08:05:29;;;;;;;2.40;1.20;;;;;;;14.34;59.60;98429.06;5105986;28;20047;-73
2023/10/22 08:07:55;;;;;;;1.85;1.30;;;;;;;14.37;59.08;98434.16;5109543;28;20299;-73
2023/10/22 08:10:22;;;;;;;2.00;1.30;;;;;;;14.37;59.03;98450.13;5109615;28;20293;-73
2023/10/22 08:12:49;;;;;;;1.83;1.20;;;;;;;14.35;58.94;98449.41;5108556;28;20036;-73
2023/10/22 08:15:16;;;;;;;2.63;1.25;;;;;;;14.35;59.65;98454.75;5109884;28;20044;-73
2023/10/22 08:17:44;;;;;;;2.35;1.45;;;;;;;14.39;59.27;98466.00;5108329;28;20308;-73
2023/10/22 08:20:11;;;;;;;3.00;1.50;;;;;;;14.39;59.31;98468.66;5108387;28;20047;-73
2023/10/22 08:22:37;;;;;;;1.90;1.40;;;;;;;14.41;59.24;98478.22;5108421;28;20078;-73
2023/10/22 08:25:05;;;;;;;1.77;1.20;;;;;;;14.22;59.33;98437.25;5109419;28;20191;-73
2023/10/22 08:27:33;;;;;;;1.70;1.20;;;;;;;14.44;58.82;98467.28;5108202;28;20300;-73
2023/10/22 08:30:00;;;;;;;2.00;1.30;;;;;;;14.45;59.27;98471.66;5108636;28;20081;-73
2023/10/22 08:32:27;;;;;;;1.50;1.20;;;;;;;14.45;59.13;98484.97;5108919;28;20074;-73
2023/10/22 08:34:55;;;;;;;1.90;1.20;;;;;;;14.41;58.27;98483.56;5109265;28;20074;-73
2023/10/22 08:37:22;;;;;;;1.83;1.30;;;;;;;14.44;58.24;98485.97;5109210;28;20043;-72
2023/10/22 08:39:48;;;;;;;2.38;1.33;;;;;;;14.40;58.06;98497.84;5109221;28;20104;-73
2023/10/22 08:42:19;;;;;;;2.15;1.40;;;;;;;14.43;58.16;98486.94;5109140;28;20292;-73
2023/10/22 08:44:48;;;;;;;2.42;1.20;;;;;;;14.19;58.13;98467.69;5108744;28;20036;-73
2023/10/22 08:47:15;;;;;;;1.85;1.40;;;;;;;14.45;58.33;98513.47;5108950;28;20120;-73
2023/10/22 08:49:42;;;;;;;2.13;1.45;;;;;;;14.43;57.27;98505.59;5107960;28;20040;-73
2023/10/22 08:52:10;;;;;;;1.38;1.15;;;;;;;14.45;57.99;98522.31;5108283;28;20040;-73
2023/10/22 08:54:37;;;;;;;2.25;1.10;;;;;;;14.28;57.99;98498.88;5108557;28;20048;-73
2023/10/22 08:57:04;;;;;;;2.58;1.20;;;;;;;14.47;57.54;98522.19;5108272;28;20040;-73
2023/10/22 08:59:34;;;;;;;2.38;1.13;;;;;;;14.44;58.29;98533.94;5107704;28;20093;-73
2023/10/22 09:02:02;;;;;;;2.72;1.20;;;;;;;14.45;58.15;98530.31;5108743;28;20315;-73
2023/10/22 09:04:32;;;;;;;1.80;1.20;;;;;;;14.49;57.84;98533.56;5108154;28;20371;-73
2023/10/22 09:06:59;;;;;;;2.03;1.20;;;;;;;14.52;58.51;98543.13;5108575;28;20040;-73
2023/10/22 09:09:33;;;;;;;2.15;1.23;;;;;;;14.51;58.02;98538.75;5108223;28;20040;-73
2023/10/22 09:12:00;;;;;;;2.47;1.55;;;;;;;14.53;58.56;98544.81;5108021;28;20093;-73
2023/10/22 09:14:27;;;;;;;2.63;1.52;;;;;;;14.56;57.97;98544.56;5108448;28;20075;-72
2023/10/22 09:16:54;;;;;;;2.30;1.50;;;;;;;14.48;58.67;98545.19;5106005;28;20048;-73
2023/10/22 09:19:37;;;;;;;1.77;1.20;;;;;;;14.48;58.03;98553.19;5108198;28;20035;-73
2023/10/22 09:22:04;;;;;;;1.63;1.10;;;;;;;14.50;59.14;98553.06;5108127;28;20040;-73
2023/10/22 09:24:36;;;;;;;2.42;1.30;;;;;;;11.65;58.15;98079.84;5108279;28;20055;-73
2023/10/22 09:27:04;;;;;;;1.85;1.30;;;;;;;14.49;58.38;98552.22;5108308;28;20235;-73
2023/10/22 09:29:32;;;;;;;1.73;1.40;;;;;;;14.47;58.83;98562.16;5107113;28;20040;-73
2023/10/22 09:31:59;;;;;;;1.88;1.23;;;;;;;14.48;58.98;98549.69;5108123;28;20051;-73
2023/10/22 09:34:27;;;;;;;2.28;1.23;;;;;;;14.50;58.48;98569.91;5108473;28;20051;-73
2023/10/22 09:36:54;;;;;;;2.00;1.40;;;;;;;14.52;57.97;98561.78;5108089;28;20044;-73
2023/10/22 09:39:36;;;;;;;2.40;1.30;;;;;;;14.50;58.19;98563.72;5108064;28;20040;-73
2023/10/22 09:42:05;;;;;;;1.88;1.30;;;;;;;14.49;57.78;98576.22;5106723;28;20044;-73
2023/10/22 09:44:32;;;;;;;2.13;1.20;;;;;;;14.49;58.27;98559.38;5107997;28;20044;-73
2023/10/22 09:47:00;;;;;;;1.98;1.40;;;;;;;14.51;57.80;98563.59;5107789;28;20115;-73
2023/10/22 09:49:28;;;;;;;1.55;1.27;;;;;;;14.51;56.96;98571.59;5107719;28;20051;-73
2023/10/22 09:51:58;;;;;;;2.13;1.33;;;;;;;14.51;57.48;98565.41;5107149;28;20052;-73
2023/10/22 09:54:33;;;;;;;1.75;1.20;;;;;;;14.49;56.96;98562.03;5107775;28;20039;-72
2023/10/22 09:57:08;;;;;;;2.40;1.48;;;;;;;14.35;57.72;98541.88;5107670;28;20055;-73
2023/10/22 09:59:35;;;;;;;;;;;;;;;14.49;57.03;98565.56;5107721;28;20210;-74
2023/10/22 10:02:02;;;;;;;1.98;1.33;;;;;;;14.47;57.19;98564.84;5107361;28;20289;-74
2023/10/22 10:04:33;;;;;;;2.47;1.40;;;;;;;14.52;57.25;98567.13;5107733;28;20188;-72
2023/10/22 10:07:02;;;;;;;2.15;1.50;;;;;;;14.50;57.30;98575.25;5107193;28;20040;-72
2023/10/22 10:09:30;;;;;;;1.70;1.20;;;;;;;14.47;57.21;98578.16;5107254;28;20039;-72
2023/10/22 10:11:58;;;;;;;2.05;1.30;;;;;;;14.52;57.68;98567.13;5107044;28;20040;-71
2023/10/22 10:14:46;;;;;;;2.15;1.40;;;;;;;14.56;57.22;98576.56;5106075;28;20040;-71
2023/10/22 10:17:14;;;;;;;2.10;1.40;;;;;;;14.54;57.80;98574.00;5105895;28;20231;-72
2023/10/22 10:19:41;;;;;;;2.75;1.30;;;;;;;14.58;58.20;98577.31;5107033;28;20044;-73
2023/10/22 10:22:08;;;;;;;2.00;1.30;;;;;;;14.59;58.02;98587.84;5106638;28;20032;-73
2023/10/22 10:24:36;;;;;;;1.73;1.20;;;;;;;13.97;57.52;98502.41;5106519;28;20211;-73
2023/10/22 10:27:32;;;;;;;2.17;1.30;;;;;;;12.92;57.43;98309.59;5106865;28;20311;-73
2023/10/22 10:30:20;;;;;;;1.98;1.30;;;;;;;11.57;56.46;98087.56;5044924;28;20217;-72
2023/10/22 10:32:49;;;;;;;2.53;1.40;;;;;;;14.59;56.67;98587.84;5100519;28;20048;-73
2023/10/22 10:35:16;;;;;;;2.78;1.70;;;;;;;14.44;57.25;98571.28;5107118;28;20052;-73
2023/10/22 10:38:15;;;;;;;2.10;1.25;;;;;;;14.47;57.09;98575.50;5106793;28;20043;-74
2023/10/22 10:40:43;;;;;;;2.50;1.40;;;;;;;14.61;56.93;98601.06;5093168;28;20223;-74
2023/10/22 10:43:09;;;;;;;2.63;1.38;;;;;;;14.65;56.56;98602.50;5106412;28;20177;-73
2023/10/22 10:45:41;;;;;;;3.28;1.58;;;;;;;14.66;56.75;98594.38;5106571;28;20047;-73
2023/10/22 10:48:28;;;;;;;1.67;1.20;;;;;;;14.67;56.05;98600.56;5106432;28;20052;-73
2023/10/22 10:51:15;;;;;;;2.13;1.40;;;;;;;14.68;57.69;98592.44;5105789;28;20093;-73
2023/10/22 10:54:18;;;;;;;1.65;1.17;;;;;;;14.70;56.92;98600.31;5106525;28;20055;-73
2023/10/22 10:56:46;;;;;;;3.45;1.48;;;;;;;14.74;56.56;98601.75;5106447;28;20173;-73
2023/10/22 10:59:42;;;;;;;2.00;1.25;;;;;;;11.91;56.65;98122.88;5106332;28;20111;-73
2023/10/22 11:02:12;;;;;;;2.92;1.55;;;;;;;14.78;56.64;98608.50;5105754;28;20254;-73
2023/10/22 11:04:46;;;;;;;4.68;1.65;;;;;;;14.17;56.27;98509.59;5105682;28;20319;-73
2023/10/22 11:07:13;;;;;;;2.17;1.50;;;;;;;14.86;56.95;98602.53;5105359;28;20085;-73
2023/10/22 11:09:41;;;;;;;2.25;1.52;;;;;;;14.87;56.60;98602.41;5106231;28;20238;-73
2023/10/22 11:12:09;;;;;;;2.25;1.40;;;;;;;14.89;56.00;98602.28;5105415;28;20181;-73
2023/10/22 11:14:36;;;;;;;2.58;1.50;;;;;;;14.62;55.58;98552.94;5105525;28;20043;-73
2023/10/22 11:17:04;;;;;;;2.53;1.30;;;;;;;14.94;54.59;98606.22;5105874;28;20299;-73
2023/10/22 11:19:33;;;;;;;2.70;1.70;;;;;;;14.98;54.95;98620.16;5105015;28;20032;-73
2023/10/22 11:22:01;;;;;;;1.75;1.30;;;;;;;14.85;54.92;98601.69;5104921;28;20044;-73
2023/10/22 11:24:29;;;;;;;2.42;1.30;;;;;;;15.00;55.23;98616.38;5106003;28;20103;-74
2023/10/22 11:26:57;;;;;;;1.77;1.20;;;;;;;15.03;54.53;98617.94;5105725;28;20040;-73
2023/10/22 11:29:24;;;;;;;2.05;1.45;;;;;;;15.06;54.55;98613.19;5105060;28;20092;-74
2023/10/22 11:31:56;;;;;;;2.42;1.40;;;;;;;15.07;55.42;98625.56;5105532;28;20238;-75
2023/10/22 11:34:23;;;;;;;1.88;1.30;;;;;;;15.10;54.51;98618.28;5104663;28;20040;-74
2023/10/22 11:36:58;;;;;;;2.42;1.20;;;;;;;15.12;54.91;98619.00;5106223;28;20187;-74
2023/10/22 11:39:33;;;;;;;1.50;1.10;;;;;;;15.15;54.18;98602.72;5105681;28;20055;-75